createdAt,value
2017-07-31T00:01:13.964Z,98694.95
2017-07-31T00:03:41.474Z,98698.59
2017-07-31T00:06:08.967Z,98695.43
2017-07-31T00:08:36.434Z,98690.40
2017-07-31T00:11:03.925Z,98678.88
2017-07-31T00:13:31.386Z,98682.52
2017-07-31T00:15:58.891Z,98679.95
2017-07-31T00:18:26.357Z,98687.84
2017-07-31T00:20:53.953Z,98684.27
2017-07-31T00:23:21.784Z,98682.73
2017-07-31T00:25:49.244Z,98682.73
2017-07-31T00:28:16.740Z,98682.61
2017-07-31T00:30:44.218Z,98682.58
2017-07-31T00:33:11.779Z,98685.54
2017-07-31T00:35:39.236Z,98688.03
2017-07-31T00:38:06.716Z,98695.34
2017-07-31T00:40:34.454Z,98700.49
2017-07-31T00:43:01.959Z,98705.32
2017-07-31T00:45:29.427Z,98697.28
2017-07-31T00:47:56.935Z,98701.06
2017-07-31T00:50:24.392Z,98705.56
2017-07-31T00:52:52.109Z,98693.06
2017-07-31T00:55:19.586Z,98688.00
2017-07-31T00:57:47.056Z,98691.92
2017-07-31T01:00:14.533Z,98694.80
2017-07-31T01:02:41.979Z,98689.67
2017-07-31T01:05:09.471Z,98694.56
2017-07-31T01:07:36.926Z,98697.83
2017-07-31T01:10:04.422Z,98701.11
2017-07-31T01:12:31.919Z,98699.73
2017-07-31T01:14:59.363Z,98690.81
2017-07-31T01:17:26.858Z,98703.29
2017-07-31T01:19:54.342Z,98696.36
2017-07-31T01:22:21.863Z,98697.22
2017-07-31T01:24:49.330Z,98699.23
2017-07-31T01:27:16.815Z,98695.10
2017-07-31T01:29:44.320Z,98695.51
2017-07-31T01:32:11.800Z,98672.35
2017-07-31T01:34:39.273Z,98684.31
2017-07-31T01:37:06.794Z,98695.08
2017-07-31T01:39:34.293Z,98700.11
2017-07-31T01:42:01.788Z,98696.08
2017-07-31T01:44:29.272Z,98730.72
2017-07-31T01:46:56.733Z,98699.72
2017-07-31T01:49:24.226Z,98699.48
2017-07-31T01:51:51.693Z,98702.25
2017-07-31T01:54:19.205Z,98709.84
2017-07-31T01:56:46.718Z,98712.66
2017-07-31T01:59:14.210Z,98716.48
2017-07-31T02:01:41.696Z,98710.77
2017-07-31T02:04:10.235Z,98709.02
2017-07-31T02:06:37.718Z,98708.73
2017-07-31T02:09:05.182Z,98707.39
2017-07-31T02:11:32.669Z,98714.48
2017-07-31T02:14:00.124Z,98711.23
2017-07-31T02:16:27.646Z,98708.16
2017-07-31T02:18:55.111Z,98703.17
2017-07-31T02:21:22.599Z,98709.39
2017-07-31T02:23:50.050Z,98715.46
2017-07-31T02:26:17.548Z,98718.16
2017-07-31T02:28:45.046Z,98709.79
2017-07-31T02:31:12.527Z,98708.79
2017-07-31T02:33:40.022Z,98706.66
2017-07-31T02:36:07.497Z,98705.13
2017-07-31T02:38:34.994Z,98705.42
2017-07-31T02:41:02.468Z,98700.84
2017-07-31T02:43:29.974Z,98702.34
2017-07-31T02:45:57.445Z,98710.55
2017-07-31T02:48:24.953Z,98711.44
2017-07-31T02:50:52.436Z,98715.56
2017-07-31T02:53:19.940Z,98717.85
2017-07-31T02:55:47.402Z,98729.63
2017-07-31T02:58:14.999Z,98730.56
2017-07-31T03:00:42.454Z,98733.51
2017-07-31T03:03:09.911Z,98729.88
2017-07-31T03:05:37.403Z,98725.23
2017-07-31T03:08:04.886Z,98726.34
2017-07-31T03:10:32.448Z,98729.81
2017-07-31T03:12:59.948Z,98719.45
2017-07-31T03:15:27.438Z,98726.58
2017-07-31T03:17:54.902Z,98729.13
2017-07-31T03:20:22.414Z,98736.42
2017-07-31T03:22:49.885Z,98738.97
2017-07-31T03:25:17.372Z,98728.45
2017-07-31T03:27:44.855Z,98746.92
2017-07-31T03:30:12.319Z,98734.13
2017-07-31T03:32:39.809Z,98722.84
2017-07-31T03:35:07.258Z,98721.60
2017-07-31T03:37:34.751Z,98723.78
2017-07-31T03:40:02.233Z,98725.12
2017-07-31T03:42:29.745Z,98728.20
2017-07-31T03:44:57.208Z,98732.08
2017-07-31T03:47:25.134Z,98726.81
2017-07-31T03:49:52.611Z,98728.05
2017-07-31T03:52:20.214Z,98741.09
2017-07-31T03:54:47.725Z,98730.06
2017-07-31T03:57:15.209Z,98732.25
2017-07-31T03:59:42.688Z,98735.36
2017-07-31T04:02:10.156Z,98747.84
2017-07-31T04:04:37.692Z,98746.75
2017-07-31T04:07:05.177Z,98751.11
2017-07-31T04:09:32.686Z,98747.45
2017-07-31T04:12:00.181Z,98747.75
2017-07-31T04:14:27.653Z,98748.55
2017-07-31T04:16:55.148Z,98752.11
2017-07-31T04:19:22.619Z,98749.83
2017-07-31T04:21:50.122Z,98736.88
2017-07-31T04:24:17.577Z,98734.59
2017-07-31T04:26:45.083Z,98738.09
2017-07-31T04:29:12.548Z,98739.42
2017-07-31T04:31:40.049Z,98735.31
2017-07-31T04:34:07.506Z,98749.81
2017-07-31T04:36:35.008Z,98756.92
2017-07-31T04:39:02.473Z,98751.73
2017-07-31T04:41:29.982Z,98760.46
2017-07-31T04:43:57.533Z,98762.31
2017-07-31T04:46:25.198Z,98759.06
2017-07-31T04:48:52.707Z,98757.59
2017-07-31T04:51:20.999Z,98761.70
2017-07-31T04:53:48.503Z,98770.63
2017-07-31T04:56:15.994Z,98774.50
2017-07-31T04:58:43.520Z,98771.37
2017-07-31T05:01:10.983Z,98767.89
2017-07-31T05:03:38.493Z,98773.98
2017-07-31T05:06:05.985Z,98790.88
2017-07-31T05:08:33.448Z,98796.55
2017-07-31T05:11:00.944Z,98799.25
2017-07-31T05:13:29.129Z,98794.56
2017-07-31T05:15:56.628Z,98782.18
2017-07-31T05:18:24.111Z,98781.17
2017-07-31T05:20:51.605Z,98773.70
2017-07-31T05:23:19.066Z,98770.77
2017-07-31T05:25:46.592Z,98779.61
2017-07-31T05:28:14.103Z,98788.97
2017-07-31T05:30:41.614Z,98769.52
2017-07-31T05:33:09.080Z,98780.55
2017-07-31T05:35:36.565Z,98762.19
2017-07-31T05:38:04.052Z,98779.14
2017-07-31T05:40:31.516Z,98768.63
2017-07-31T05:42:59.010Z,98768.83
2017-07-31T05:45:26.467Z,98773.77
2017-07-31T05:47:53.959Z,98781.28
2017-07-31T05:50:21.450Z,98782.52
2017-07-31T05:52:49.279Z,98784.88
2017-07-31T05:55:16.797Z,98797.61
2017-07-31T05:57:44.262Z,98793.45
2017-07-31T06:00:11.755Z,98795.78
2017-07-31T06:02:40.217Z,98786.93
2017-07-31T06:05:07.713Z,98780.06
2017-07-31T06:07:35.218Z,98780.14
2017-07-31T06:10:02.699Z,98786.89
2017-07-31T06:12:30.157Z,98788.07
2017-07-31T06:14:57.651Z,98785.20
2017-07-31T06:17:26.195Z,98780.78
2017-07-31T06:19:53.653Z,98786.25
2017-07-31T06:22:21.152Z,98787.89
2017-07-31T06:24:48.629Z,98806.81
2017-07-31T06:27:16.125Z,98805.75
2017-07-31T06:29:43.581Z,98812.44
2017-07-31T06:32:11.063Z,98798.70
2017-07-31T06:34:38.878Z,98807.98
2017-07-31T06:37:06.366Z,98801.90
2017-07-31T06:39:33.869Z,98782.59
2017-07-31T06:42:01.351Z,98797.69
2017-07-31T06:44:28.842Z,98798.28
2017-07-31T06:46:56.359Z,98810.69
2017-07-31T06:49:23.929Z,98810.77
2017-07-31T06:51:51.404Z,98817.34
2017-07-31T06:54:18.904Z,98825.82
2017-07-31T06:56:46.367Z,98825.18
2017-07-31T06:59:13.933Z,98829.97
2017-07-31T07:01:41.404Z,98825.18
2017-07-31T07:04:08.923Z,98832.73
2017-07-31T07:06:36.418Z,98838.64
2017-07-31T07:09:03.927Z,98840.98
2017-07-31T07:11:31.444Z,98841.80
2017-07-31T07:13:58.897Z,98845.56
2017-07-31T07:16:26.478Z,98842.20
2017-07-31T07:18:54.005Z,98828.23
2017-07-31T07:21:21.507Z,98833.97
2017-07-31T07:23:48.993Z,98828.27
2017-07-31T07:26:17.365Z,98826.09
2017-07-31T07:28:45.734Z,98831.77
2017-07-31T07:31:13.192Z,98837.74
2017-07-31T07:33:40.733Z,98833.77
2017-07-31T07:36:08.183Z,98847.48
2017-07-31T07:38:35.670Z,98851.11
2017-07-31T07:41:03.250Z,98850.22
2017-07-31T07:43:30.765Z,98844.97
2017-07-31T07:45:58.213Z,98842.70
2017-07-31T07:48:25.858Z,98843.75
2017-07-31T07:50:53.347Z,98841.56
2017-07-31T07:53:20.830Z,98841.87
2017-07-31T07:55:48.342Z,98830.09
2017-07-31T07:58:15.823Z,98852.11
2017-07-31T08:00:43.374Z,98840.61
2017-07-31T08:03:10.825Z,98833.88
2017-07-31T08:05:38.347Z,98839.88
2017-07-31T08:08:06.775Z,98843.59
2017-07-31T08:10:34.425Z,98834.99
2017-07-31T08:13:01.884Z,98843.89
2017-07-31T08:15:29.340Z,98844.08
2017-07-31T08:17:56.874Z,98845.09
2017-07-31T08:20:24.384Z,98848.76
2017-07-31T08:22:51.882Z,98858.70
2017-07-31T08:25:19.540Z,98855.86
2017-07-31T08:27:47.003Z,98854.58
2017-07-31T08:30:14.744Z,98854.72
2017-07-31T08:32:42.709Z,98852.55
2017-07-31T08:35:10.804Z,98862.91
2017-07-31T08:37:38.310Z,98850.51
2017-07-31T08:40:05.822Z,98837.73
2017-07-31T08:42:34.002Z,98847.55
2017-07-31T08:45:01.485Z,98839.03
2017-07-31T08:47:29.031Z,98834.98
2017-07-31T08:49:57.110Z,98841.61
2017-07-31T08:52:24.850Z,98844.72
2017-07-31T08:54:52.511Z,98844.29
2017-07-31T08:57:19.965Z,98850.25
2017-07-31T08:59:47.434Z,98845.83
2017-07-31T09:02:15.014Z,98848.55
2017-07-31T09:04:42.476Z,98848.69
2017-07-31T09:07:09.991Z,98854.78
2017-07-31T09:09:37.475Z,98845.51
2017-07-31T09:12:05.031Z,98853.28
2017-07-31T09:14:32.506Z,98849.72
2017-07-31T09:17:00.373Z,98845.33
2017-07-31T09:19:27.921Z,98841.81
2017-07-31T09:21:55.643Z,98833.95
2017-07-31T09:24:23.181Z,98844.58
2017-07-31T09:26:50.696Z,98847.19
2017-07-31T09:29:18.182Z,98847.30
2017-07-31T09:31:46.693Z,98843.49
2017-07-31T09:34:14.881Z,98838.30
2017-07-31T09:36:42.358Z,98851.33
2017-07-31T09:39:09.875Z,98839.34
2017-07-31T09:41:37.370Z,98844.41
2017-07-31T09:44:05.013Z,98849.53
2017-07-31T09:46:32.549Z,98834.62
2017-07-31T09:49:00.026Z,98839.08
2017-07-31T09:51:28.339Z,98839.20
2017-07-31T09:53:55.830Z,98844.91
2017-07-31T09:56:23.331Z,98834.87
2017-07-31T09:58:50.798Z,98844.19
2017-07-31T10:01:18.314Z,98841.38
2017-07-31T10:03:46.358Z,98845.55
2017-07-31T10:06:14.186Z,98843.81
2017-07-31T10:08:42.021Z,98848.14
2017-07-31T10:11:09.501Z,98840.08
2017-07-31T10:13:37.017Z,98838.16
2017-07-31T10:16:04.499Z,98839.05
2017-07-31T10:18:32.066Z,98826.67
2017-07-31T10:20:59.547Z,98833.86
2017-07-31T10:23:27.430Z,98805.73
2017-07-31T10:25:54.922Z,98825.67
2017-07-31T10:28:22.424Z,98815.17
2017-07-31T10:30:50.699Z,98817.91
2017-07-31T10:33:18.172Z,98824.17
2017-07-31T10:35:45.771Z,98816.92
2017-07-31T10:38:13.221Z,98831.47
2017-07-31T10:40:40.721Z,98832.11
2017-07-31T10:43:08.183Z,98829.61
2017-07-31T10:45:35.807Z,98827.87
2017-07-31T10:48:03.264Z,98824.88
2017-07-31T10:50:31.217Z,98826.00
2017-07-31T10:52:58.693Z,98837.89
2017-07-31T10:55:26.143Z,98835.67
2017-07-31T10:57:54.361Z,98837.23
2017-07-31T11:00:21.808Z,98835.52
2017-07-31T11:02:49.299Z,98831.27
2017-07-31T11:05:16.755Z,98837.62
2017-07-31T11:07:44.345Z,98848.39
2017-07-31T11:10:11.838Z,98855.52
2017-07-31T11:12:40.047Z,98862.39
2017-07-31T11:15:07.839Z,98873.94
2017-07-31T11:17:35.288Z,98874.52
2017-07-31T11:20:03.965Z,98881.55
2017-07-31T11:22:31.949Z,98883.03
2017-07-31T11:24:59.473Z,98882.41
2017-07-31T11:27:26.937Z,98881.34
2017-07-31T11:29:54.483Z,98885.75
2017-07-31T11:32:21.958Z,98887.44
2017-07-31T11:34:49.641Z,98886.22
2017-07-31T11:37:17.144Z,98883.50
2017-07-31T11:39:44.594Z,98874.98
2017-07-31T11:42:12.080Z,98882.90
2017-07-31T11:44:39.542Z,98887.55
2017-07-31T11:47:07.048Z,98889.11
2017-07-31T11:49:34.542Z,98888.92
2017-07-31T11:52:03.356Z,98884.62
2017-07-31T11:54:30.831Z,98870.20
2017-07-31T11:56:58.300Z,98860.06
2017-07-31T11:59:26.351Z,98858.27
2017-07-31T12:01:53.852Z,98856.86
2017-07-31T12:04:21.313Z,98826.58
2017-07-31T12:06:49.139Z,98820.34
2017-07-31T12:09:16.646Z,98819.09
2017-07-31T12:11:44.106Z,98810.11
2017-07-31T12:14:11.590Z,98814.86
2017-07-31T12:16:39.064Z,98824.93
2017-07-31T12:19:06.630Z,98822.88
2017-07-31T12:21:34.156Z,98819.14
2017-07-31T12:24:01.610Z,98818.79
2017-07-31T12:26:29.100Z,98810.31
2017-07-31T12:28:56.551Z,98809.09
2017-07-31T12:31:24.423Z,98806.23
2017-07-31T12:33:51.932Z,98804.80
2017-07-31T12:36:19.406Z,98797.39
2017-07-31T12:38:46.951Z,98794.28
2017-07-31T12:41:14.508Z,98774.11
2017-07-31T12:43:41.997Z,98765.30
2017-07-31T12:46:09.453Z,98767.06
2017-07-31T12:48:36.948Z,98767.11
2017-07-31T12:51:04.790Z,98788.84
2017-07-31T12:53:32.352Z,98798.97
2017-07-31T12:55:59.848Z,98795.00
2017-07-31T12:58:27.323Z,98803.40
2017-07-31T13:00:55.818Z,98814.81
2017-07-31T13:03:23.360Z,98811.90
2017-07-31T13:05:50.905Z,98795.74
2017-07-31T13:08:18.416Z,98784.48
2017-07-31T13:10:45.916Z,98757.47
2017-07-31T13:13:13.382Z,98799.27
2017-07-31T13:15:41.046Z,98789.64
2017-07-31T13:18:08.524Z,98790.61
2017-07-31T13:20:36.749Z,98781.48
2017-07-31T13:23:04.303Z,98783.81
2017-07-31T13:25:31.760Z,98772.95
2017-07-31T13:27:59.271Z,98777.25
2017-07-31T13:30:26.743Z,98803.87
2017-07-31T13:32:54.215Z,98805.87
2017-07-31T13:35:21.881Z,98801.61
2017-07-31T13:37:49.512Z,98815.59
2017-07-31T13:40:17.699Z,98820.05
2017-07-31T13:42:45.225Z,98817.46
2017-07-31T13:45:12.710Z,98811.98
2017-07-31T13:47:40.196Z,98814.85
2017-07-31T13:50:07.787Z,98817.47
2017-07-31T13:52:35.294Z,98810.98
2017-07-31T13:55:02.802Z,98844.43
2017-07-31T13:57:30.322Z,98860.82
2017-07-31T13:59:59.495Z,98857.29
2017-07-31T14:02:26.994Z,98852.55
2017-07-31T14:04:54.577Z,98870.88
2017-07-31T14:07:22.147Z,98864.94
2017-07-31T14:09:51.835Z,98854.95
2017-07-31T14:12:19.953Z,98839.43
2017-07-31T14:14:47.433Z,98832.66
2017-07-31T14:17:15.178Z,98813.44
2017-07-31T14:19:42.634Z,98769.84
2017-07-31T14:22:10.110Z,98768.31
2017-07-31T14:24:38.041Z,98768.87
2017-07-31T14:27:05.553Z,98772.22
2017-07-31T14:29:33.090Z,98774.63
2017-07-31T14:32:01.125Z,98761.35
2017-07-31T14:34:28.764Z,98770.85
2017-07-31T14:36:56.221Z,98793.29
2017-07-31T14:39:23.797Z,98809.25
2017-07-31T14:41:51.287Z,98799.47
2017-07-31T14:44:18.750Z,98810.00
2017-07-31T14:46:46.278Z,98802.81
2017-07-31T14:49:13.751Z,98765.81
2017-07-31T14:51:41.309Z,98763.93
2017-07-31T14:54:09.616Z,98763.52
2017-07-31T14:56:37.114Z,98766.53
2017-07-31T14:59:04.594Z,98773.23
2017-07-31T15:01:32.121Z,98764.81
2017-07-31T15:03:59.621Z,98760.66
2017-07-31T15:06:27.129Z,98770.48
2017-07-31T15:08:54.709Z,98759.72
2017-07-31T15:11:22.190Z,98763.46
2017-07-31T15:13:50.109Z,98769.98
2017-07-31T15:16:17.595Z,98767.88
2017-07-31T15:18:45.112Z,98761.51
2017-07-31T15:21:12.571Z,98757.85
2017-07-31T15:23:40.598Z,98755.17
2017-07-31T15:26:08.138Z,98753.88
2017-07-31T15:28:37.362Z,98750.59
2017-07-31T15:31:05.490Z,98735.86
2017-07-31T15:33:32.990Z,98734.84
2017-07-31T15:36:00.454Z,98735.53
2017-07-31T15:38:27.979Z,98732.76
2017-07-31T15:40:55.496Z,98721.02
2017-07-31T15:43:23.794Z,98727.17
2017-07-31T15:45:51.340Z,98734.53
2017-07-31T15:48:18.837Z,98736.09
2017-07-31T15:50:46.316Z,98731.87
2017-07-31T15:53:15.070Z,98727.53
2017-07-31T15:55:42.552Z,98723.55
2017-07-31T15:58:10.323Z,98722.01
2017-07-31T16:00:37.818Z,98720.23
2017-07-31T16:03:05.313Z,98719.36
2017-07-31T16:05:33.170Z,98706.77
2017-07-31T16:08:00.636Z,98703.19
2017-07-31T16:10:28.157Z,98704.42
2017-07-31T16:12:55.635Z,98696.94
2017-07-31T16:15:23.431Z,98686.06
2017-07-31T16:17:50.920Z,98672.22
2017-07-31T16:20:18.374Z,98670.98
2017-07-31T16:22:45.883Z,98675.32
2017-07-31T16:25:13.347Z,98677.41
2017-07-31T16:27:40.813Z,98676.27
2017-07-31T16:30:08.301Z,98666.28
2017-07-31T16:32:36.156Z,98667.47
2017-07-31T16:35:03.621Z,98669.59
2017-07-31T16:37:36.022Z,98672.39
2017-07-31T16:40:26.679Z,98661.56
2017-07-31T16:43:05.741Z,98666.68
2017-07-31T16:45:39.971Z,98669.28
2017-07-31T16:48:19.335Z,98662.52
2017-07-31T16:50:46.849Z,98672.71
2017-07-31T16:53:14.986Z,98678.62
2017-07-31T16:55:42.522Z,98679.85
2017-07-31T16:58:09.982Z,98679.08
2017-07-31T17:00:38.215Z,98680.76
2017-07-31T17:03:07.151Z,98680.66
2017-07-31T17:05:34.711Z,98678.97
2017-07-31T17:08:02.202Z,98677.16
2017-07-31T17:10:29.732Z,98679.48
2017-07-31T17:12:57.274Z,98675.61
2017-07-31T17:15:25.158Z,98672.59
2017-07-31T17:17:52.770Z,98677.38
2017-07-31T17:20:20.257Z,98675.81
2017-07-31T17:22:47.761Z,98676.64
2017-07-31T17:25:15.223Z,98676.42
2017-07-31T17:27:42.737Z,98683.62
2017-07-31T17:30:10.180Z,98671.23
2017-07-31T17:32:37.912Z,98685.84
2017-07-31T17:35:05.395Z,98683.48
2017-07-31T17:37:32.893Z,98677.27
2017-07-31T17:40:00.376Z,98670.62
2017-07-31T17:42:27.909Z,98665.59
2017-07-31T17:44:55.451Z,98672.02
2017-07-31T17:47:22.930Z,98659.78
2017-07-31T17:49:50.676Z,98664.87
2017-07-31T17:52:18.160Z,98664.91
2017-07-31T17:54:45.660Z,98663.97
2017-07-31T17:57:13.207Z,98662.95
2017-07-31T17:59:40.699Z,98666.48
2017-07-31T18:02:08.151Z,98673.86
2017-07-31T18:04:35.648Z,98684.53
2017-07-31T18:07:03.197Z,98695.02
2017-07-31T18:09:30.643Z,98687.65
2017-07-31T18:11:58.170Z,98661.21
2017-07-31T18:14:25.643Z,98585.65
2017-07-31T18:16:53.121Z,98595.95
2017-07-31T18:19:20.601Z,98673.44
2017-07-31T18:21:48.076Z,98685.31
2017-07-31T18:24:15.584Z,98684.92
2017-07-31T18:26:43.089Z,98678.10
2017-07-31T18:29:10.719Z,98676.30
2017-07-31T18:31:38.278Z,98681.05
2017-07-31T18:34:05.793Z,98674.65
2017-07-31T18:36:33.255Z,98671.72
2017-07-31T18:39:00.751Z,98686.88
2017-07-31T18:41:28.284Z,98693.05
2017-07-31T18:43:56.014Z,98687.98
2017-07-31T18:46:23.498Z,98693.84
2017-07-31T18:48:50.963Z,98702.10
2017-07-31T18:51:18.472Z,98706.52
2017-07-31T18:53:45.937Z,98705.41
2017-07-31T18:56:13.489Z,98706.94
2017-07-31T18:58:40.983Z,98713.59
2017-07-31T19:01:08.595Z,98709.59
2017-07-31T19:03:36.104Z,98718.47
2017-07-31T19:06:03.629Z,98719.04
2017-07-31T19:08:31.086Z,98695.27
2017-07-31T19:10:58.589Z,98695.88
2017-07-31T19:13:26.087Z,98699.52
2017-07-31T19:15:53.558Z,98685.15
2017-07-31T19:18:21.892Z,98682.78
2017-07-31T19:20:49.456Z,98667.98
2017-07-31T19:23:17.137Z,98673.58
2017-07-31T19:25:44.591Z,98674.66
2017-07-31T19:28:12.114Z,98671.27
2017-07-31T19:30:39.609Z,98666.95
2017-07-31T19:33:07.068Z,98675.92
2017-07-31T19:35:34.711Z,98675.05
2017-07-31T19:38:02.270Z,98670.18
2017-07-31T19:40:29.766Z,98661.53
2017-07-31T19:42:57.257Z,98661.94
2017-07-31T19:45:25.465Z,98650.74
2017-07-31T19:47:53.056Z,98646.53
2017-07-31T19:50:20.512Z,98647.27
2017-07-31T19:52:48.030Z,98641.63
2017-07-31T19:55:15.500Z,98644.39
2017-07-31T19:57:43.014Z,98647.63
2017-07-31T20:00:10.555Z,98658.97
2017-07-31T20:02:38.092Z,98645.81
2017-07-31T20:05:05.651Z,98648.85
2017-07-31T20:07:33.145Z,98643.30
2017-07-31T20:10:00.710Z,98640.89
2017-07-31T20:12:28.170Z,98641.53
2017-07-31T20:14:55.682Z,98643.38
2017-07-31T20:17:23.138Z,98646.77
2017-07-31T20:19:50.642Z,98647.84
2017-07-31T20:22:18.104Z,98650.97
2017-07-31T20:24:45.692Z,98640.28
2017-07-31T20:27:13.159Z,98631.30
2017-07-31T20:29:40.680Z,98627.41
2017-07-31T20:32:09.381Z,98632.05
2017-07-31T20:34:36.909Z,98635.44
2017-07-31T20:37:04.371Z,98633.94
2017-07-31T20:39:32.036Z,98623.98
2017-07-31T20:41:59.707Z,98607.91
2017-07-31T20:44:27.187Z,98622.78
2017-07-31T20:46:54.657Z,98615.34
2017-07-31T20:49:22.263Z,98623.56
2017-07-31T20:51:49.847Z,98623.80
2017-07-31T20:54:17.349Z,98626.97
2017-07-31T20:56:44.951Z,98625.66
2017-07-31T20:59:12.410Z,98623.20
2017-07-31T21:01:39.895Z,98620.81
2017-07-31T21:04:07.389Z,98618.06
2017-07-31T21:06:34.886Z,98628.37
2017-07-31T21:09:02.380Z,98623.08
2017-07-31T21:11:29.900Z,98617.81
2017-07-31T21:13:57.404Z,98618.30
2017-07-31T21:16:24.927Z,98613.42
2017-07-31T21:18:52.562Z,98618.43
2017-07-31T21:21:20.028Z,98610.67
2017-07-31T21:23:47.570Z,98611.88
2017-07-31T21:26:15.094Z,98617.28
2017-07-31T21:28:42.615Z,98621.87
2017-07-31T21:31:10.259Z,98622.00
2017-07-31T21:33:37.745Z,98630.06
2017-07-31T21:36:05.310Z,98632.34
2017-07-31T21:38:32.825Z,98624.53
2017-07-31T21:41:01.067Z,98609.45
2017-07-31T21:43:28.535Z,98610.52
2017-07-31T21:45:56.043Z,98593.89
2017-07-31T21:48:23.516Z,98611.20
2017-07-31T21:50:51.011Z,98607.13
2017-07-31T21:53:18.592Z,98619.11
2017-07-31T21:55:46.056Z,98615.20
2017-07-31T21:58:13.705Z,98605.89
2017-07-31T22:00:41.176Z,98611.41
2017-07-31T22:03:08.656Z,98606.93
2017-07-31T22:05:36.161Z,98601.56
2017-07-31T22:08:03.637Z,98589.77
2017-07-31T22:10:31.141Z,98579.76
2017-07-31T22:12:58.672Z,98569.94
2017-07-31T22:15:26.147Z,98567.64
2017-07-31T22:17:59.241Z,98558.92
2017-07-31T22:20:32.324Z,98557.75
2017-07-31T22:22:59.824Z,98557.11
2017-07-31T22:25:27.329Z,98558.80
2017-07-31T22:27:54.793Z,98560.31
2017-07-31T22:30:22.339Z,98574.06
2017-07-31T22:32:51.222Z,98581.52
2017-07-31T22:35:18.697Z,98588.75
2017-07-31T22:37:46.169Z,98601.69
2017-07-31T22:40:14.826Z,98601.05
2017-07-31T22:42:42.296Z,98605.69
2017-07-31T22:45:09.762Z,98609.38
2017-07-31T22:47:37.544Z,98608.00
2017-07-31T22:50:05.017Z,98612.30
2017-07-31T22:52:32.475Z,98608.94
2017-07-31T22:55:00.142Z,98614.20
2017-07-31T22:57:27.596Z,98607.66
2017-07-31T22:59:55.051Z,98606.59
2017-07-31T23:02:22.563Z,98604.58
2017-07-31T23:04:50.038Z,98597.14
2017-07-31T23:07:17.596Z,98598.75
2017-07-31T23:09:45.090Z,98595.32
2017-07-31T23:12:12.568Z,98600.97
2017-07-31T23:14:40.352Z,98598.45
2017-07-31T23:17:07.826Z,98601.48
2017-07-31T23:19:36.124Z,98597.69
2017-07-31T23:22:03.583Z,98592.59
2017-07-31T23:24:31.076Z,98582.82
2017-07-31T23:26:58.596Z,98569.56
2017-07-31T23:29:26.445Z,98559.67
2017-07-31T23:31:54.020Z,98558.27
2017-07-31T23:34:21.478Z,98557.55
2017-07-31T23:36:48.950Z,98555.58
2017-07-31T23:39:16.389Z,98552.99
2017-07-31T23:41:43.881Z,98552.36
2017-07-31T23:44:11.343Z,98552.92
2017-07-31T23:46:38.836Z,98539.71
2017-07-31T23:49:06.316Z,98538.06
2017-07-31T23:51:34.085Z,98542.13
2017-07-31T23:54:01.590Z,98559.41
2017-07-31T23:56:29.042Z,98526.80
2017-07-31T23:58:56.573Z,98552.96
